Eden Isle, Arkansas
Current Conditions -  °F | °C
As of 4:55 PM on Thursday 23 Oct 2014 (Local Time) from KBVX Reporting Station
Overcast Overcast  
Wind Chill: 57°   Ceiling: 10000
Heat Index: 57°   Visibility: 10mi
Dew Point: 50°   Wind: 0mph
Humidity: 77%   Direction: NA
Pressure: 30.15"   Gusts: NA
Location:  35.6262°N, 92.064°W
Report Text: KBVX 232155Z AUTO 00000KT 10SM FEW085 OVC100 14/10 A3015 RMK AO1
Loading
Personal Weather Stations






























Interactive Weather Map
Tropical Storm Tracking
New forecast layout! Learn more

10-Day Weather Forecast

Advertisements
Track Severe Weather on mobile